Time;durP1;ratioP1;P1;durP2;ratioP2;P2;SDS_P1;SDS_P2;PMS_P1;PMS_P2;Temp;Humidity;BMP_temperature;BMP_pressure;BME280_temperature;BME280_humidity;BME280_pressure;Samples;Min_cycle;Max_cycle;Signal;HPM_P1;HPM_P2
2022/11/27 00:01:14;;;;;;;5.03;2.10;;;20.60;60.90;;;;;;5018860;28;87791;-81
2022/11/27 00:03:40;;;;;;;4.22;2.28;;;20.50;60.90;;;;;;5017075;27;88697;-81
2022/11/27 00:06:07;;;;;;;4.05;2.38;;;20.50;60.90;;;;;;5018420;28;87990;-81
2022/11/27 00:08:33;;;;;;;4.25;2.20;;;20.50;60.90;;;;;;5017726;27;87562;-81
2022/11/27 00:11:10;;;;;;;4.85;2.03;;;20.50;60.90;;;;;;5018624;27;87062;-81
2022/11/27 00:13:36;;;;;;;3.13;1.60;;;20.50;60.70;;;;;;5017071;27;89503;-81
2022/11/27 00:16:03;;;;;;;4.30;2.00;;;20.50;60.90;;;;;;5018467;28;88843;-81
2022/11/27 00:18:29;;;;;;;3.67;2.10;;;20.50;60.90;;;;;;5017910;27;88797;-81
2022/11/27 00:20:55;;;;;;;4.70;2.08;;;20.40;60.70;;;;;;5017288;27;87283;-81
2022/11/27 00:23:20;;;;;;;5.38;2.13;;;20.50;60.90;;;;;;5016461;27;88200;-81
2022/11/27 00:25:52;;;;;;;4.25;2.30;;;20.40;60.90;;;;;;5018547;28;87974;-81
2022/11/27 00:28:19;;;;;;;4.22;2.28;;;20.40;61.10;;;;;;5019075;27;87207;-80
2022/11/27 00:30:45;;;;;;;4.40;1.88;;;20.40;60.90;;;;;;5018622;28;87414;-81
2022/11/27 00:33:10;;;;;;;4.82;2.03;;;20.40;60.90;;;;;;5017953;27;88217;-81
2022/11/27 00:35:38;;;;;;;4.90;2.10;;;20.40;61.10;;;;;;5016272;27;87808;-81
2022/11/27 00:38:03;;;;;;;3.40;2.00;;;20.40;60.90;;;;;;5016107;27;88224;-81
2022/11/27 00:40:29;;;;;;;3.97;2.42;;;20.30;61.00;;;;;;5018752;27;86976;-81
2022/11/27 00:42:55;;;;;;;3.17;1.75;;;20.40;60.90;;;;;;5016925;28;87393;-81
2022/11/27 00:45:20;;;;;;;4.97;2.08;;;20.30;61.00;;;;;;5016907;27;88004;-81
2022/11/27 00:47:46;;;;;;;3.33;2.00;;;20.40;61.10;;;;;;5016283;27;87291;-81
2022/11/27 00:50:12;;;;;;;4.10;2.30;;;20.30;61.10;;;;;;5015288;27;87575;-81
2022/11/27 00:52:37;;;;;;;3.55;1.75;;;20.30;61.20;;;;;;5017473;28;88670;-81
2022/11/27 00:55:03;;;;;;;4.55;2.10;;;20.30;61.00;;;;;;5019763;27;87241;-81
2022/11/27 00:57:29;;;;;;;2.78;2.00;;;20.30;61.30;;;;;;5020105;27;87506;-81
2022/11/27 00:59:55;;;;;;;3.67;2.30;;;20.30;61.20;;;;;;5016840;28;87393;-81
2022/11/27 01:02:20;;;;;;;3.63;1.80;;;20.20;61.10;;;;;;5016961;27;89855;-81
2022/11/27 01:04:47;;;;;;;3.67;1.88;;;20.20;61.20;;;;;;5014407;27;88750;-81
2022/11/27 01:07:13;;;;;;;3.63;2.13;;;20.20;60.90;;;;;;5016605;28;87425;-81
2022/11/27 01:09:38;;;;;;;3.03;1.80;;;20.20;61.10;;;;;;5020320;27;87227;-81
2022/11/27 01:12:04;;;;;;;3.45;2.00;;;20.20;61.10;;;;;;5015727;27;88656;-81
2022/11/27 01:14:30;;;;;;;2.90;1.75;;;20.20;61.20;;;;;;5019227;27;87499;-81
2022/11/27 01:16:56;;;;;;;3.22;1.80;;;20.20;61.20;;;;;;5018352;28;87626;-81
2022/11/27 01:19:21;;;;;;;2.97;1.77;;;20.20;61.10;;;;;;5017895;27;87118;-81
2022/11/27 01:21:47;;;;;;;4.60;2.30;;;20.20;61.20;;;;;;5019736;28;87841;-81
2022/11/27 01:24:16;;;;;;;4.75;2.25;;;20.20;61.10;;;;;;5017383;28;87690;-81
2022/11/27 01:26:42;;;;;;;3.20;2.05;;;20.20;60.90;;;;;;5018778;27;88116;-81
2022/11/27 01:29:09;;;;;;;4.45;2.05;;;20.20;60.90;;;;;;5018913;27;87071;-81
2022/11/27 01:31:35;;;;;;;3.08;1.83;;;20.10;61.00;;;;;;5019627;27;88676;-81
2022/11/27 01:34:06;;;;;;;3.05;1.80;;;20.10;61.00;;;;;;5014604;28;87896;-81
2022/11/27 01:36:32;;;;;;;3.97;2.30;;;20.10;60.90;;;;;;5016972;27;88570;-81
2022/11/27 01:38:59;;;;;;;3.63;2.00;;;20.10;60.80;;;;;;5017545;27;87082;-81
2022/11/27 01:41:38;;;;;;;3.30;2.00;;;20.10;60.90;;;;;;5018766;27;87715;-81
2022/11/27 01:44:22;;;;;;;3.60;1.80;;;20.10;61.00;;;;;;5017495;27;88852;-81
2022/11/27 01:46:57;;;;;;;4.63;2.10;;;20.10;60.90;;;;;;5019376;27;87430;-81
2022/11/27 01:49:22;;;;;;;2.58;1.70;;;20.00;60.80;;;;;;5008576;27;87733;-81
2022/11/27 01:51:59;;;;;;;3.42;2.15;;;20.10;60.90;;;;;;5018486;28;89507;-81
2022/11/27 01:54:31;;;;;;;3.08;1.83;;;20.10;60.80;;;;;;5015856;28;89773;-81
2022/11/27 01:57:01;;;;;;;2.95;1.85;;;20.00;60.80;;;;;;5019629;27;87470;-81
2022/11/27 01:59:27;;;;;;;3.05;2.10;;;20.00;60.60;;;;;;5017439;27;88079;-81
2022/11/27 02:01:53;;;;;;;5.55;2.00;;;20.00;60.90;;;;;;5014669;28;88010;-81
2022/11/27 02:04:19;;;;;;;3.58;2.00;;;20.00;60.90;;;;;;5015106;27;88289;-81
2022/11/27 02:06:44;;;;;;;4.07;2.28;;;20.00;60.90;;;;;;5017866;27;87148;-81
2022/11/27 02:09:10;;;;;;;3.05;1.90;;;20.00;61.00;;;;;;5018694;27;88135;-81
2022/11/27 02:12:05;;;;;;;3.00;1.70;;;20.00;61.00;;;;;;5016471;27;87932;-81
2022/11/27 02:14:40;;;;;;;2.67;1.73;;;20.00;61.00;;;;;;4925489;28;87847;-81
2022/11/27 02:17:20;;;;;;;2.53;1.70;;;19.90;60.80;;;;;;4914884;28;88748;-81
2022/11/27 02:19:54;;;;;;;3.28;2.00;;;19.90;60.90;;;;;;4919663;28;87675;-81
2022/11/27 02:22:56;;;;;;;6.57;2.28;;;19.90;61.00;;;;;;4934052;28;87631;-81
2022/11/27 02:25:43;;;;;;;3.42;2.08;;;19.90;60.90;;;;;;4914250;28;88364;-81
2022/11/27 02:28:33;;;;;;;2.88;1.88;;;19.90;60.70;;;;;;4917309;28;87442;-81
2022/11/27 02:31:19;;;;;;;2.60;1.80;;;19.90;61.10;;;;;;4935426;28;91194;-81
2022/11/27 02:33:51;;;;;;;3.60;1.75;;;19.90;60.80;;;;;;4935669;28;93139;-81
2022/11/27 02:36:28;;;;;;;4.15;1.80;;;19.90;60.70;;;;;;4919685;28;86796;-81
2022/11/27 02:39:01;;;;;;;3.53;2.05;;;19.90;60.80;;;;;;4927160;28;87059;-81
2022/11/27 02:41:35;;;;;;;5.30;2.15;;;19.90;60.90;;;;;;4936470;28;87796;-81
2022/11/27 02:44:05;;;;;;;2.88;1.85;;;19.80;60.70;;;;;;4919834;28;91519;-81
2022/11/27 02:46:31;;;;;;;2.60;1.80;;;19.80;60.80;;;;;;4916840;28;89285;-81
2022/11/27 02:49:02;;;;;;;3.55;2.28;;;19.90;60.70;;;;;;4936865;28;87531;-81
2022/11/27 02:51:37;;;;;;;3.53;2.00;;;19.80;60.70;;;;;;4975009;28;87480;-81
2022/11/27 02:54:06;;;;;;;2.90;1.58;;;19.80;61.50;;;;;;4994804;28;89162;-81
2022/11/27 02:56:33;;;;;;;3.17;1.75;;;19.80;60.80;;;;;;4996232;28;87255;-81
2022/11/27 02:59:04;;;;;;;2.90;1.85;;;19.80;60.60;;;;;;4997234;28;87368;-81
2022/11/27 03:01:35;;;;;;;3.55;1.80;;;19.80;60.70;;;;;;4994706;28;87097;-81
2022/11/27 03:04:06;;;;;;;3.10;1.90;;;19.80;61.00;;;;;;4996519;28;87870;-81
2022/11/27 03:06:47;;;;;;;2.85;1.58;;;19.80;60.80;;;;;;4997557;28;87579;-81
2022/11/27 03:09:25;;;;;;;2.97;1.90;;;19.80;60.70;;;;;;4997138;28;88571;-81
2022/11/27 03:11:51;;;;;;;3.25;1.83;;;19.70;60.80;;;;;;4996262;28;87668;-81
2022/11/27 03:14:23;;;;;;;3.03;1.73;;;19.70;60.70;;;;;;5000517;28;88218;-81
2022/11/27 03:16:48;;;;;;;2.88;1.83;;;19.70;60.90;;;;;;5000493;28;87681;-81
2022/11/27 03:19:40;;;;;;;3.50;1.60;;;19.70;60.80;;;;;;5002060;28;87363;-81
2022/11/27 03:22:06;;;;;;;1.73;1.60;;;19.70;60.90;;;;;;4928591;28;91779;-81
2022/11/27 03:24:34;;;;;;;1.63;1.40;;;19.70;61.80;;;;;;4945492;28;88392;-81
2022/11/27 03:27:01;;;;;;;2.67;1.63;;;19.70;60.90;;;;;;4933877;28;88837;-81
2022/11/27 03:29:43;;;;;;;3.10;1.95;;;19.70;60.80;;;;;;4928642;28;87534;-81
2022/11/27 03:32:09;;;;;;;2.38;1.70;;;19.70;60.90;;;;;;4927531;28;87894;-81
2022/11/27 03:34:35;;;;;;;2.60;1.88;;;19.70;60.90;;;;;;4927393;28;89228;-81
2022/11/27 03:37:01;;;;;;;2.33;1.70;;;19.70;61.00;;;;;;4928639;28;89242;-81
2022/11/27 03:39:28;;;;;;;2.33;1.38;;;19.60;60.80;;;;;;4927900;28;87778;-81
2022/11/27 03:42:12;;;;;;;3.53;1.95;;;19.60;60.90;;;;;;4926945;28;87447;-81
2022/11/27 03:44:57;;;;;;;2.38;1.50;;;19.70;60.90;;;;;;4918285;28;87724;-81
2022/11/27 03:47:51;;;;;;;1.83;1.33;;;19.60;60.60;;;;;;4927794;28;88224;-80
2022/11/27 03:50:54;;;;;;;3.15;1.70;;;19.60;60.90;;;;;;4927991;28;87630;-81
2022/11/27 03:53:35;;;;;;;2.00;1.40;;;19.60;60.70;;;;;;4843387;29;86978;-81
2022/11/27 03:56:10;;;;;;;3.22;1.75;;;19.60;60.90;;;;;;4832183;29;88478;-81
2022/11/27 03:58:53;;;;;;;2.60;1.55;;;19.60;60.70;;;;;;4859312;28;87949;-81
2022/11/27 04:01:22;;;;;;;3.15;1.90;;;19.60;60.80;;;;;;4927248;28;88577;-81
2022/11/27 04:03:47;;;;;;;2.95;1.65;;;19.60;60.80;;;;;;4928543;28;87338;-81
2022/11/27 04:06:13;;;;;;;2.47;1.58;;;19.60;60.70;;;;;;4927200;28;89230;-80
2022/11/27 04:08:39;;;;;;;2.20;1.40;;;19.60;60.70;;;;;;4927425;28;88712;-81
2022/11/27 04:11:05;;;;;;;3.38;1.88;;;19.60;60.50;;;;;;4927845;28;87641;-81
2022/11/27 04:13:30;;;;;;;2.78;1.60;;;19.60;60.70;;;;;;4927553;28;88007;-81
2022/11/27 04:16:00;;;;;;;2.90;1.85;;;19.60;60.50;;;;;;4927864;28;88728;-81
2022/11/27 04:18:26;;;;;;;1.80;1.40;;;19.60;61.10;;;;;;4944887;28;87225;-81
2022/11/27 04:20:52;;;;;;;2.08;1.42;;;19.50;60.60;;;;;;4946838;28;95351;-81
2022/11/27 04:23:17;;;;;;;3.33;1.75;;;19.60;60.70;;;;;;4946570;28;87314;-81
2022/11/27 04:25:43;;;;;;;2.33;1.45;;;19.50;61.10;;;;;;4945863;28;90239;-80
2022/11/27 04:28:09;;;;;;;2.75;1.70;;;19.50;60.80;;;;;;5002533;28;88931;-81
2022/11/27 04:30:34;;;;;;;2.35;1.60;;;19.50;60.80;;;;;;5020496;27;87314;-81
2022/11/27 04:33:00;;;;;;;2.63;1.60;;;19.50;60.90;;;;;;5019489;28;87401;-81
2022/11/27 04:35:26;;;;;;;3.35;1.80;;;19.50;60.90;;;;;;5018979;27;88190;-80
2022/11/27 04:37:51;;;;;;;1.77;1.35;;;19.50;60.80;;;;;;5016094;28;87154;-81
2022/11/27 04:40:17;;;;;;;2.10;1.40;;;19.50;60.90;;;;;;5018153;28;87037;-79
2022/11/27 04:42:45;;;;;;;2.83;1.75;;;19.50;60.90;;;;;;5018770;28;89031;-81
2022/11/27 04:45:13;;;;;;;4.22;2.22;;;19.50;60.80;;;;;;5020863;27;88185;-81
2022/11/27 04:47:39;;;;;;;2.28;1.48;;;19.50;60.60;;;;;;5016005;28;87375;-81
2022/11/27 04:50:05;;;;;;;4.38;1.70;;;19.50;60.70;;;;;;5017610;27;88456;-80
2022/11/27 04:52:31;;;;;;;2.60;1.60;;;19.50;60.70;;;;;;5017100;28;87492;-81
2022/11/27 04:54:57;;;;;;;1.40;1.30;;;19.40;60.60;;;;;;5018220;28;88862;-81
2022/11/27 04:57:22;;;;;;;2.35;1.73;;;19.50;60.70;;;;;;5018261;28;88334;-81
2022/11/27 04:59:48;;;;;;;2.42;1.70;;;19.40;60.70;;;;;;5017243;27;87017;-81
2022/11/27 05:02:14;;;;;;;2.38;1.50;;;19.40;60.70;;;;;;5017336;28;87650;-81
2022/11/27 05:04:39;;;;;;;2.17;1.48;;;19.40;60.80;;;;;;5014624;28;88418;-80
2022/11/27 05:07:05;;;;;;;1.73;1.33;;;19.40;60.80;;;;;;5019815;28;87996;-81
2022/11/27 05:09:30;;;;;;;2.15;1.60;;;19.40;60.70;;;;;;5017506;27;86918;-81
2022/11/27 05:11:56;;;;;;;2.40;1.50;;;19.40;60.90;;;;;;5018515;27;87821;-81
2022/11/27 05:14:27;;;;;;;2.20;1.35;;;19.40;60.80;;;;;;5016869;28;95912;-81
2022/11/27 05:16:55;;;;;;;2.17;1.30;;;19.40;60.80;;;;;;5016730;28;88262;-81
2022/11/27 05:19:23;;;;;;;1.98;1.55;;;19.40;60.90;;;;;;5019077;27;87480;-81
2022/11/27 05:21:50;;;;;;;1.98;1.60;;;19.40;61.00;;;;;;5019243;27;87455;-80
2022/11/27 05:24:17;;;;;;;3.08;1.77;;;19.40;61.80;;;;;;5018928;27;87476;-81
2022/11/27 05:26:43;;;;;;;3.03;1.60;;;19.40;61.00;;;;;;5015043;28;87616;-82
2022/11/27 05:29:10;;;;;;;1.63;1.40;;;19.40;60.70;;;;;;5017348;28;87242;-82
2022/11/27 05:31:36;;;;;;;1.52;1.00;;;19.40;60.90;;;;;;5016340;27;86528;-83
2022/11/27 05:34:02;;;;;;;1.77;1.30;;;19.40;61.10;;;;;;5018314;27;88191;-82
2022/11/27 05:36:28;;;;;;;1.65;1.38;;;19.30;61.10;;;;;;5017526;28;88264;-82
2022/11/27 05:38:54;;;;;;;3.08;1.48;;;19.30;61.00;;;;;;5018016;28;88371;-82
2022/11/27 05:41:20;;;;;;;2.05;1.40;;;19.30;61.10;;;;;;5017287;28;87346;-82
2022/11/27 05:43:46;;;;;;;1.42;1.30;;;19.30;61.00;;;;;;5020566;27;89167;-82
2022/11/27 05:46:14;;;;;;;1.50;1.40;;;19.30;61.10;;;;;;5015467;28;87374;-82
2022/11/27 05:48:40;;;;;;;2.63;1.27;;;19.30;61.00;;;;;;5017288;28;87542;-81
2022/11/27 05:51:06;;;;;;;2.80;1.63;;;19.30;61.00;;;;;;5016933;27;87274;-82
2022/11/27 05:53:32;;;;;;;1.65;1.15;;;19.30;61.00;;;;;;5017189;27;88207;-82
2022/11/27 05:56:03;;;;;;;2.55;1.33;;;19.30;61.10;;;;;;5018662;28;87614;-82
2022/11/27 05:58:29;;;;;;;1.92;1.33;;;19.30;61.00;;;;;;5016308;27;87464;-81
2022/11/27 06:00:55;;;;;;;2.08;1.55;;;19.30;61.00;;;;;;5014891;28;87441;-81
2022/11/27 06:03:20;;;;;;;1.80;1.30;;;19.30;61.10;;;;;;5016801;28;89194;-82
2022/11/27 06:05:46;;;;;;;2.40;1.30;;;19.30;61.20;;;;;;5017921;28;89281;-82
2022/11/27 06:08:12;;;;;;;1.67;1.25;;;19.30;61.00;;;;;;5015038;27;87141;-81
2022/11/27 06:10:38;;;;;;;2.28;1.70;;;19.30;61.00;;;;;;5016402;27;87341;-82
2022/11/27 06:13:04;;;;;;;2.13;1.35;;;19.30;60.80;;;;;;5015348;28;88634;-82
2022/11/27 06:15:30;;;;;;;1.90;1.40;;;19.30;61.00;;;;;;5013883;27;87887;-82
2022/11/27 06:17:55;;;;;;;1.55;1.20;;;19.30;60.80;;;;;;5016350;28;87276;-82
2022/11/27 06:20:22;;;;;;;1.70;1.40;;;19.30;61.00;;;;;;5016071;28;86986;-82
2022/11/27 06:22:48;;;;;;;3.42;1.35;;;19.30;60.90;;;;;;5017274;28;87659;-82
2022/11/27 06:25:14;;;;;;;2.08;1.33;;;19.20;61.00;;;;;;5020970;27;88138;-82
2022/11/27 06:27:39;;;;;;;1.27;1.17;;;19.30;61.00;;;;;;5015465;28;88296;-82
2022/11/27 06:30:05;;;;;;;1.85;1.50;;;19.30;61.30;;;;;;5016965;27;87509;-82
2022/11/27 06:32:31;;;;;;;2.13;1.23;;;19.30;61.00;;;;;;5018141;28;88843;-81
2022/11/27 06:34:57;;;;;;;1.48;1.38;;;19.20;60.80;;;;;;5018099;27;87386;-82
2022/11/27 06:37:22;;;;;;;1.75;1.25;;;19.20;60.90;;;;;;5016841;27;87707;-82
2022/11/27 06:39:48;;;;;;;2.53;1.55;;;19.20;60.80;;;;;;5016412;27;87272;-82
2022/11/27 06:42:14;;;;;;;1.63;1.10;;;19.30;60.90;;;;;;5015351;28;87257;-82
2022/11/27 06:44:40;;;;;;;2.30;1.42;;;19.20;60.90;;;;;;5015252;28;88571;-82
2022/11/27 06:47:06;;;;;;;1.98;1.20;;;19.20;60.80;;;;;;5015364;28;88259;-83
2022/11/27 06:49:31;;;;;;;1.80;1.20;;;19.20;60.80;;;;;;5014800;27;88521;-82
2022/11/27 06:51:57;;;;;;;2.13;1.42;;;19.20;60.90;;;;;;5017343;28;91104;-82
2022/11/27 06:54:22;;;;;;;1.70;1.17;;;19.30;60.70;;;;;;5012731;28;90661;-82
2022/11/27 06:56:49;;;;;;;3.03;1.40;;;19.30;60.50;;;;;;5015958;27;87317;-82
2022/11/27 06:59:15;;;;;;;1.90;1.40;;;19.30;60.00;;;;;;5018428;28;87508;-82
2022/11/27 07:01:41;;;;;;;2.30;1.65;;;19.40;60.60;;;;;;5015294;27;88341;-82
2022/11/27 07:04:12;;;;;;;2.15;1.50;;;19.40;60.40;;;;;;5018529;27;89833;-82
2022/11/27 07:06:39;;;;;;;2.15;1.23;;;19.40;59.80;;;;;;5006073;28;87322;-83
2022/11/27 07:09:05;;;;;;;3.72;1.60;;;19.50;59.80;;;;;;5013554;28;89356;-83
2022/11/27 07:11:31;;;;;;;4.32;1.60;;;19.50;60.00;;;;;;5018512;28;89881;-83
2022/11/27 07:13:59;;;;;;;6.93;1.80;;;19.70;60.50;;;;;;5022091;28;88358;-82
2022/11/27 07:16:27;;;;;;;2.03;1.50;;;19.80;60.00;;;;;;5017790;27;88498;-82
2022/11/27 07:18:56;;;;;;;2.83;1.65;;;20.00;59.80;;;;;;5015471;28;89058;-82
2022/11/27 07:21:22;;;;;;;3.85;1.38;;;20.10;59.70;;;;;;5017795;28;89084;-82
2022/11/27 07:23:48;;;;;;;1.80;1.30;;;20.20;59.70;;;;;;5017512;27;88302;-82
2022/11/27 07:26:25;;;;;;;1.88;1.20;;;20.30;59.40;;;;;;5016341;27;87215;-82
2022/11/27 07:28:51;;;;;;;2.92;1.42;;;20.30;59.40;;;;;;5017399;28;87858;-82
2022/11/27 07:31:22;;;;;;;2.05;1.48;;;20.40;59.20;;;;;;5017779;28;88637;-81
2022/11/27 07:33:50;;;;;;;2.20;1.42;;;20.40;59.20;;;;;;5017109;28;88156;-82
2022/11/27 07:36:22;;;;;;;3.63;1.50;;;20.40;59.30;;;;;;5015187;28;87226;-82
2022/11/27 07:38:48;;;;;;;3.17;1.27;;;20.30;59.20;;;;;;5016549;27;87627;-82
2022/11/27 07:41:14;;;;;;;2.95;1.63;;;20.30;59.20;;;;;;5016623;27;89682;-82
2022/11/27 07:43:41;;;;;;;5.05;1.33;;;20.30;59.30;;;;;;5015105;27;88871;-81
2022/11/27 07:46:11;;;;;;;3.22;1.42;;;20.30;59.30;;;;;;5014512;28;87442;-82
2022/11/27 07:48:36;;;;;;;2.72;1.60;;;20.20;59.40;;;;;;5012627;27;87276;-81
2022/11/27 07:51:06;;;;;;;2.80;1.63;;;20.20;59.40;;;;;;5013055;27;89901;-82
2022/11/27 07:53:34;;;;;;;3.35;1.40;;;20.10;59.50;;;;;;5015930;28;88891;-82
2022/11/27 07:55:59;;;;;;;5.63;1.70;;;20.10;59.30;;;;;;5016775;28;87023;-82
2022/11/27 07:58:25;;;;;;;2.33;1.35;;;20.10;59.20;;;;;;5017351;28;86713;-83
2022/11/27 08:00:50;;;;;;;4.07;1.88;;;20.00;59.40;;;;;;5024681;28;89977;-83
2022/11/27 08:03:16;;;;;;;5.20;1.70;;;20.10;59.20;;;;;;5027702;27;88298;-83
2022/11/27 08:05:42;;;;;;;2.70;1.50;;;20.20;59.20;;;;;;5017064;27;88841;-82
2022/11/27 08:08:08;;;;;;;8.07;2.30;;;20.20;59.40;;;;;;5018380;27;88140;-82
2022/11/27 08:10:37;;;;;;;17.42;4.30;;;20.20;59.20;;;;;;5015844;27;88040;-82
2022/11/27 08:13:03;;;;;;;6.53;1.95;;;20.30;58.90;;;;;;5016261;28;88415;-82
2022/11/27 08:15:29;;;;;;;13.18;2.80;;;20.30;59.20;;;;;;5017492;27;87573;-83
2022/11/27 08:17:55;;;;;;;12.48;3.35;;;20.40;59.10;;;;;;5018260;28;87510;-84
2022/11/27 08:20:20;;;;;;;13.30;3.15;;;20.40;59.20;;;;;;5016361;27;87968;-83
2022/11/27 08:22:46;;;;;;;19.52;3.28;;;20.50;58.80;;;;;;5019050;28;86648;-83
2022/11/27 08:25:12;;;;;;;18.90;3.83;;;20.60;58.80;;;;;;5020529;28;87132;-83
2022/11/27 08:27:37;;;;;;;17.48;4.03;;;20.50;58.80;;;;;;5018564;27;88430;-83
2022/11/27 08:30:05;;;;;;;25.20;5.47;;;20.50;58.10;;;;;;5015978;28;88388;-82
2022/11/27 08:32:30;;;;;;;18.77;5.20;;;20.50;58.00;;;;;;5017754;27;89144;-83
2022/11/27 08:34:56;;;;;;;25.98;6.63;;;20.50;57.70;;;;;;5020014;27;87575;-83
2022/11/27 08:37:21;;;;;;;15.35;5.38;;;20.50;57.10;;;;;;5018673;27;87999;-83
2022/11/27 08:39:47;;;;;;;20.80;5.85;;;20.40;56.80;;;;;;5018987;28;88741;-84
2022/11/27 08:42:13;;;;;;;16.55;5.18;;;20.50;57.10;;;;;;5020201;27;87678;-83
2022/11/27 08:44:38;;;;;;;18.30;5.38;;;20.50;57.00;;;;;;5019573;27;87395;-83
2022/11/27 08:47:04;;;;;;;13.55;4.78;;;20.60;56.50;;;;;;5014537;28;87627;-83
2022/11/27 08:49:30;;;;;;;21.25;5.25;;;20.50;56.60;;;;;;5015991;28;89356;-82
2022/11/27 08:51:55;;;;;;;19.25;5.60;;;20.50;56.30;;;;;;5020450;28;88339;-83
2022/11/27 08:54:21;;;;;;;18.70;4.88;;;20.40;56.30;;;;;;5014598;28;88521;-82
2022/11/27 08:56:46;;;;;;;18.52;5.50;;;20.50;56.40;;;;;;5016721;27;87633;-83
2022/11/27 08:59:12;;;;;;;19.98;5.88;;;20.50;56.20;;;;;;5015711;27;87632;-83
2022/11/27 09:01:38;;;;;;;14.93;4.60;;;20.50;56.20;;;;;;5016498;27;87878;-83
2022/11/27 09:04:03;;;;;;;20.73;6.25;;;20.60;55.90;;;;;;5016108;28;88134;-83
2022/11/27 09:06:32;;;;;;;16.02;5.45;;;20.60;55.10;;;;;;5017135;27;87317;-83
2022/11/27 09:08:59;;;;;;;17.60;5.17;;;20.60;55.20;;;;;;5011533;28;87595;-83
2022/11/27 09:11:26;;;;;;;14.95;5.10;;;20.60;55.20;;;;;;5015932;27;87633;-83
2022/11/27 09:13:52;;;;;;;16.23;5.80;;;20.60;55.00;;;;;;5018144;27;87284;-83
2022/11/27 09:16:19;;;;;;;17.90;5.82;;;20.50;55.20;;;;;;5018345;28;88113;-83
2022/11/27 09:18:50;;;;;;;15.52;5.03;;;20.60;55.50;;;;;;5018012;28;89690;-83
2022/11/27 09:21:18;;;;;;;13.88;5.05;;;20.60;55.70;;;;;;5015010;28;88833;-83
2022/11/27 09:23:44;;;;;;;20.98;5.65;;;20.70;55.70;;;;;;5015218;27;87050;-83
2022/11/27 09:26:15;;;;;;;16.50;5.68;;;20.70;55.90;;;;;;5017903;27;87694;-83
2022/11/27 09:28:42;;;;;;;14.55;5.43;;;20.70;56.40;;;;;;5014565;27;89857;-83
2022/11/27 09:31:10;;;;;;;17.75;5.32;;;20.60;56.80;;;;;;5018771;28;87934;-83
2022/11/27 09:33:38;;;;;;;14.48;5.53;;;20.60;57.80;;;;;;5018669;28;87103;-82
2022/11/27 09:36:10;;;;;;;20.75;5.38;;;20.60;58.60;;;;;;5015284;27;87487;-82
2022/11/27 09:38:39;;;;;;;15.98;5.00;;;20.70;57.80;;;;;;5020375;27;88111;-83
2022/11/27 09:41:10;;;;;;;15.07;5.03;;;20.70;57.60;;;;;;5026986;27;89256;-83
2022/11/27 09:43:56;;;;;;;11.75;4.70;;;20.70;57.50;;;;;;5018579;27;88570;-83
2022/11/27 09:46:33;;;;;;;22.75;6.40;;;20.80;57.40;;;;;;5017258;27;87472;-83
2022/11/27 09:49:04;;;;;;;20.77;6.95;;;20.70;58.10;;;;;;5020676;28;88753;-81
2022/11/27 09:51:52;;;;;;;16.98;6.07;;;20.70;58.00;;;;;;5018159;27;90168;-82
2022/11/27 09:54:24;;;;;;;15.90;5.60;;;20.70;58.20;;;;;;5019178;27;88453;-82
2022/11/27 09:56:53;;;;;;;19.90;5.25;;;20.70;58.30;;;;;;5014721;27;87829;-82
2022/11/27 09:59:21;;;;;;;12.67;4.80;;;20.80;58.30;;;;;;5019839;27;88551;-82
2022/11/27 10:01:47;;;;;;;11.35;5.07;;;20.80;57.80;;;;;;5017697;27;87963;-82
2022/11/27 10:04:16;;;;;;;16.83;5.18;;;20.80;57.00;;;;;;5018204;28;87272;-82
2022/11/27 10:07:04;;;;;;;13.90;5.27;;;20.80;56.60;;;;;;5018514;27;87316;-82
2022/11/27 10:09:50;;;;;;;16.20;5.35;;;20.80;56.80;;;;;;4962550;27;89135;-82
2022/11/27 10:12:29;;;;;;;17.05;5.55;;;20.70;57.50;;;;;;5017390;27;88951;-82
2022/11/27 10:15:18;;;;;;;14.23;4.72;;;20.70;57.50;;;;;;5019941;27;86936;-83
2022/11/27 10:18:11;;;;;;;15.93;5.28;;;20.70;57.80;;;;;;5017923;27;87250;-84
2022/11/27 10:20:47;;;;;;;8.55;3.67;;;20.70;57.60;;;;;;5018932;28;90145;-83
2022/11/27 10:23:30;;;;;;;9.43;4.47;;;20.80;54.70;;;;;;5018479;27;88315;-82
2022/11/27 10:26:03;;;;;;;12.40;4.47;;;20.80;55.10;;;;;;5017183;27;87135;-83
2022/11/27 10:28:43;;;;;;;9.20;4.70;;;20.80;55.90;;;;;;5017509;27;87296;-82
2022/11/27 10:31:32;;;;;;;7.93;4.30;;;20.80;55.30;;;;;;5016440;28;88675;-82
2022/11/27 10:34:19;;;;;;;11.20;4.30;;;20.80;54.90;;;;;;4996687;28;93608;-82
2022/11/27 10:36:50;;;;;;;10.30;4.03;;;20.80;55.10;;;;;;5017009;28;88514;-83
2022/11/27 10:39:27;;;;;;;11.85;4.40;;;20.70;54.50;;;;;;5016885;28;87398;-82
2022/11/27 10:42:01;;;;;;;7.88;4.50;;;20.70;54.90;;;;;;5016342;27;88178;-83
2022/11/27 10:44:37;;;;;;;12.35;5.30;;;20.70;54.60;;;;;;5015231;28;88171;-82
2022/11/27 10:47:06;;;;;;;13.25;6.45;;;20.60;54.20;;;;;;5017663;27;87333;-83
2022/11/27 10:49:35;;;;;;;18.10;6.38;;;20.60;53.60;;;;;;5017644;28;87458;-83
2022/11/27 10:52:01;;;;;;;12.48;5.38;;;20.60;53.70;;;;;;5017695;28;88430;-83
2022/11/27 10:54:31;;;;;;;10.60;5.13;;;20.70;54.40;;;;;;5019398;28;88252;-84
2022/11/27 10:57:37;;;;;;;11.90;5.18;;;20.70;55.50;;;;;;5019492;27;86935;-83
2022/11/27 11:00:23;;;;;;;11.20;4.47;;;20.60;56.10;;;;;;5017692;28;87530;-83
2022/11/27 11:03:02;;;;;;;12.27;4.85;;;20.70;56.90;;;;;;5017688;27;89606;-83
2022/11/27 11:05:29;;;;;;;12.03;5.20;;;20.70;57.20;;;;;;5018092;27;88757;-82
2022/11/27 11:07:59;;;;;;;8.57;4.47;;;20.70;57.30;;;;;;5018690;27;87301;-83
2022/11/27 11:10:29;;;;;;;13.57;4.97;;;20.70;57.50;;;;;;5018153;27;87291;-83
2022/11/27 11:13:10;;;;;;;10.88;4.78;;;20.70;57.60;;;;;;5019404;28;88549;-84
2022/11/27 11:16:14;;;;;;;13.07;5.22;;;20.70;58.00;;;;;;5017799;28;88700;-83
2022/11/27 11:18:47;;;;;;;10.25;4.63;;;20.70;56.90;;;;;;4965200;28;87427;-83
2022/11/27 11:21:22;;;;;;;8.98;4.82;;;20.70;57.00;;;;;;4965588;28;86639;-83
2022/11/27 11:23:55;;;;;;;10.70;4.85;;;20.80;56.10;;;;;;4965537;28;88808;-83
2022/11/27 11:26:26;;;;;;;8.15;4.55;;;20.70;56.10;;;;;;4965883;28;88806;-83
2022/11/27 11:28:54;;;;;;;8.20;4.45;;;20.70;56.90;;;;;;4964743;28;88029;-84
2022/11/27 11:31:35;;;;;;;10.97;4.80;;;20.70;57.10;;;;;;4957322;28;87201;-83
2022/11/27 11:34:03;;;;;;;8.43;4.43;;;20.70;57.20;;;;;;4959704;28;88117;-83
2022/11/27 11:36:30;;;;;;;9.88;4.57;;;20.70;57.30;;;;;;4968346;28;89517;-83
2022/11/27 11:38:56;;;;;;;13.10;4.50;;;20.70;57.50;;;;;;4968664;28;87572;-83
2022/11/27 11:41:23;;;;;;;12.63;4.43;;;20.80;57.00;;;;;;4968612;28;87443;-84
2022/11/27 11:43:58;;;;;;;10.93;4.65;;;20.80;57.50;;;;;;4969681;28;87338;-84
2022/11/27 11:46:28;;;;;;;7.90;4.40;;;20.80;57.90;;;;;;4969092;28;87297;-83
2022/11/27 11:48:56;;;;;;;9.23;4.20;;;20.80;58.40;;;;;;4968259;28;87070;-83
2022/11/27 11:51:44;;;;;;;14.63;4.85;;;20.70;58.90;;;;;;4967703;28;88929;-83
2022/11/27 11:54:10;;;;;;;10.30;4.90;;;20.70;59.30;;;;;;4973444;28;89509;-83
2022/11/27 11:56:44;;;;;;;11.20;4.63;;;20.70;59.20;;;;;;5019747;27;89374;-83
2022/11/27 11:59:50;;;;;;;9.70;4.82;;;20.80;59.30;;;;;;5018445;27;87516;-84
2022/11/27 12:02:41;;;;;;;9.32;5.10;;;20.80;58.90;;;;;;5022413;27;88519;-83
2022/11/27 12:05:35;;;;;;;13.68;4.57;;;20.80;58.60;;;;;;5020677;27;88042;-83
2022/11/27 12:08:19;;;;;;;17.15;5.03;;;20.80;58.60;;;;;;5016876;28;89662;-83
2022/11/27 12:11:21;;;;;;;11.50;4.30;;;20.90;58.80;;;;;;5016674;27;87641;-83
2022/11/27 12:14:25;;;;;;;8.18;4.75;;;21.00;59.10;;;;;;4945040;28;87539;-83
2022/11/27 12:17:21;;;;;;;21.48;4.90;;;21.10;58.50;;;;;;4842516;28;88603;-83
2022/11/27 12:19:49;;;;;;;9.68;5.13;;;21.20;58.60;;;;;;4843581;28;95571;-82
2022/11/27 12:22:39;;;;;;;11.10;4.85;;;21.20;58.40;;;;;;4844767;29;88610;-83
2022/11/27 12:25:23;;;;;;;;;;;21.10;58.80;;;;;;4868201;28;91349;-82
2022/11/27 12:28:07;;;;;;;10.68;4.07;;;21.00;54.10;;;;;;4861018;28;94447;-82
2022/11/27 12:31:03;;;;;;;9.30;3.85;;;21.00;53.70;;;;;;4869416;28;88263;-81
2022/11/27 12:33:57;;;;;;;9.35;4.25;;;20.90;54.10;;;;;;4861717;28;88041;-83
2022/11/27 12:36:27;;;;;;;14.05;4.40;;;21.00;57.10;;;;;;4870655;28;87476;-80
2022/11/27 12:39:09;;;;;;;12.85;3.90;;;21.00;57.50;;;;;;4867895;28;87743;-82
2022/11/27 12:41:43;;;;;;;9.85;4.18;;;21.00;56.40;;;;;;4869187;28;87853;-82
2022/11/27 12:44:52;;;;;;;9.85;4.40;;;20.80;57.20;;;;;;4869741;28;87416;-82
2022/11/27 12:47:35;;;;;;;8.13;3.92;;;20.70;57.90;;;;;;4860587;28;87454;-82
2022/11/27 12:50:18;;;;;;;11.10;4.40;;;20.50;58.20;;;;;;4871327;28;91720;-82
2022/11/27 12:52:59;;;;;;;11.20;4.68;;;20.40;58.80;;;;;;4959428;28;88736;-82
2022/11/27 12:55:29;;;;;;;9.57;4.38;;;20.30;58.90;;;;;;5017873;28;87303;-81
2022/11/27 12:58:05;;;;;;;8.50;4.22;;;20.30;59.00;;;;;;5019125;28;87435;-81
2022/11/27 13:00:36;;;;;;;9.75;4.65;;;20.20;59.20;;;;;;5018785;27;87723;-81
2022/11/27 13:03:10;;;;;;;14.60;4.22;;;20.30;59.20;;;;;;5019219;27;88737;-81